TOM9VL EGBB-GMAD
Flight info
| Callsign | TOM9VL |
|---|---|
| Flight time | N/A |
| Altitude | 37000 |
| Route | EGBB/15 N0414F240 LUXT15 LUXTO N92 ZESPE/N0453F340 DCT PACSE DCT TONQU DCT SALCO/N0454F330 DCT EBOMO DCT IBISU/N0457F350 DCT ERWAN DCT BALDA DCT BATAX DCT TOFEF DCT ALAGU DCT AMSEL UR722 CSD UR975 EKTAL EKTA2A GMAD/27 |
| Aircraft | B738/M-V/N |
Departure
| Time | 2026-05-07 15:15 |
|---|---|
| Airport | Birmingham Airport (EGBB) |
Arrival
| Time | N/A |
|---|---|
| Airport | Al Massira Airport (GMAD) |
| Time | Latitude | Longitude | Altitude | Speed | Heading |
|---|---|---|---|---|---|
| 2026-05-07 14:50 | 52.45273 | -1.73532 | 330 ft | 0 kts | 326° |
| 2026-05-07 14:57 | 52.45256 | -1.73514 | 326 ft | 4 kts | 326° |
| 2026-05-07 14:58 | 52.45234 | -1.73490 | 326 ft | 4 kts | 326° |
| 2026-05-07 14:58 | 52.45213 | -1.73463 | 330 ft | 4 kts | 317° |
| 2026-05-07 14:58 | 52.45195 | -1.73431 | 328 ft | 4 kts | 308° |
| 2026-05-07 14:58 | 52.45192 | -1.73425 | 328 ft | 1 kts | 309° |
| 2026-05-07 15:04 | 52.45193 | -1.73428 | 330 ft | 2 kts | 309° |
| 2026-05-07 15:04 | 52.45201 | -1.73474 | 329 ft | 5 kts | 263° |
| 2026-05-07 15:04 | 52.45190 | -1.73515 | 329 ft | 3 kts | 234° |
| 2026-05-07 15:04 | 52.45172 | -1.73556 | 328 ft | 4 kts | 233° |
| 2026-05-07 15:05 | 52.45143 | -1.73620 | 327 ft | 4 kts | 236° |
| 2026-05-07 15:05 | 52.45132 | -1.73649 | 327 ft | 6 kts | 238° |
| 2026-05-07 15:05 | 52.45106 | -1.73723 | 328 ft | 8 kts | 255° |
| 2026-05-07 15:05 | 52.45136 | -1.73822 | 330 ft | 13 kts | 326° |
| 2026-05-07 15:06 | 52.45204 | -1.73896 | 328 ft | 11 kts | 329° |
| 2026-05-07 15:06 | 52.45269 | -1.73965 | 327 ft | 11 kts | 324° |
| 2026-05-07 15:06 | 52.45317 | -1.74059 | 331 ft | 11 kts | 296° |
| 2026-05-07 15:06 | 52.45349 | -1.74168 | 329 ft | 11 kts | 296° |
| 2026-05-07 15:07 | 52.45381 | -1.74275 | 329 ft | 10 kts | 297° |
| 2026-05-07 15:07 | 52.45415 | -1.74383 | 329 ft | 11 kts | 297° |
| 2026-05-07 15:07 | 52.45452 | -1.74499 | 328 ft | 13 kts | 299° |
| 2026-05-07 15:07 | 52.45511 | -1.74622 | 325 ft | 15 kts | 326° |
| 2026-05-07 15:08 | 52.45595 | -1.74713 | 325 ft | 14 kts | 326° |
| 2026-05-07 15:08 | 52.45676 | -1.74798 | 326 ft | 14 kts | 328° |
| 2026-05-07 15:08 | 52.45751 | -1.74887 | 325 ft | 14 kts | 324° |
| 2026-05-07 15:08 | 52.45835 | -1.74980 | 323 ft | 15 kts | 326° |
| 2026-05-07 15:09 | 52.45921 | -1.75076 | 322 ft | 15 kts | 326° |
| 2026-05-07 15:09 | 52.46003 | -1.75165 | 321 ft | 15 kts | 325° |
| 2026-05-07 15:09 | 52.46092 | -1.75265 | 318 ft | 16 kts | 324° |
| 2026-05-07 15:09 | 52.46189 | -1.75372 | 312 ft | 16 kts | 326° |
| 2026-05-07 15:10 | 52.46276 | -1.75470 | 312 ft | 15 kts | 326° |
| 2026-05-07 15:10 | 52.46358 | -1.75562 | 312 ft | 14 kts | 326° |
| 2026-05-07 15:10 | 52.46432 | -1.75644 | 315 ft | 12 kts | 326° |
| 2026-05-07 15:10 | 52.46498 | -1.75717 | 318 ft | 11 kts | 326° |
| 2026-05-07 15:11 | 52.46555 | -1.75781 | 321 ft | 9 kts | 326° |
| 2026-05-07 15:11 | 52.46599 | -1.75830 | 323 ft | 7 kts | 325° |
| 2026-05-07 15:11 | 52.46631 | -1.75887 | 326 ft | 7 kts | 290° |
| 2026-05-07 15:11 | 52.46616 | -1.75958 | 328 ft | 7 kts | 237° |
| 2026-05-07 15:12 | 52.46589 | -1.76022 | 328 ft | 7 kts | 234° |
| 2026-05-07 15:12 | 52.46554 | -1.76077 | 329 ft | 7 kts | 202° |
| 2026-05-07 15:12 | 52.46516 | -1.76063 | 326 ft | 0 kts | 144° |
| 2026-05-07 15:13 | 52.46515 | -1.76061 | 326 ft | 1 kts | 144° |
| 2026-05-07 15:14 | 52.46446 | -1.75985 | 324 ft | 29 kts | 147° |
| 2026-05-07 15:14 | 52.46084 | -1.75582 | 316 ft | 96 kts | 145° |
| 2026-05-07 15:14 | 52.45380 | -1.74791 | 323 ft | 149 kts | 144° |
| 2026-05-07 15:14 | 52.44441 | -1.73818 | 669 ft | 162 kts | 146° |
| 2026-05-07 15:15 | 52.43445 | -1.72749 | 1105 ft | 184 kts | 141° |
| 2026-05-07 15:15 | 52.42355 | -1.71510 | 1629 ft | 197 kts | 142° |
| 2026-05-07 15:15 | 52.41143 | -1.70363 | 2238 ft | 211 kts | 160° |
| 2026-05-07 15:15 | 52.39622 | -1.69802 | 2465 ft | 236 kts | 166° |
| 2026-05-07 15:16 | 52.37964 | -1.69274 | 2953 ft | 246 kts | 175° |
| 2026-05-07 15:16 | 52.36313 | -1.69908 | 3643 ft | 247 kts | 210° |
| 2026-05-07 15:16 | 52.34959 | -1.71627 | 4249 ft | 249 kts | 224° |
| 2026-05-07 15:16 | 52.33724 | -1.73650 | 4826 ft | 255 kts | 227° |
| 2026-05-07 15:17 | 52.32476 | -1.75779 | 5202 ft | 271 kts | 228° |
| 2026-05-07 15:17 | 52.31152 | -1.78037 | 6024 ft | 274 kts | 228° |
| 2026-05-07 15:17 | 52.29826 | -1.80280 | 6898 ft | 276 kts | 228° |
| 2026-05-07 15:17 | 52.28482 | -1.82535 | 7704 ft | 278 kts | 228° |
| 2026-05-07 15:18 | 52.27117 | -1.84812 | 8468 ft | 283 kts | 227° |
| 2026-05-07 15:18 | 52.25734 | -1.87109 | 9292 ft | 284 kts | 228° |
| 2026-05-07 15:18 | 52.24334 | -1.89427 | 10094 ft | 288 kts | 227° |
| 2026-05-07 15:18 | 52.22899 | -1.91801 | 10501 ft | 305 kts | 227° |
| 2026-05-07 15:19 | 52.21351 | -1.94358 | 10685 ft | 328 kts | 227° |
| 2026-05-07 15:19 | 52.19690 | -1.97094 | 10869 ft | 350 kts | 227° |